Time;durP1;ratioP1;P1;durP2;ratioP2;P2;SDS_P1;SDS_P2;PMS_P1;PMS_P2;Temp;Humidity;BMP_temperature;BMP_pressure;BME280_temperature;BME280_humidity;BME280_pressure;Samples;Min_cycle;Max_cycle;Signal;HPM_P1;HPM_P2
2022/05/26 00:01:05;;;;;;;37.70;31.20;;;;;;;9.22;100.00;99109.17;105201;1268;70507;-75
2022/05/26 00:03:39;;;;;;;33.20;29.40;;;;;;;9.19;100.00;99108.42;105254;1268;73367;-74
2022/05/26 00:06:08;;;;;;;32.60;28.50;;;;;;;9.17;100.00;99106.27;105339;1268;61300;-74
2022/05/26 00:08:39;;;;;;;32.10;28.60;;;;;;;9.13;100.00;99105.76;105242;1268;61284;-74
2022/05/26 00:11:08;;;;;;;31.80;28.20;;;;;;;9.11;100.00;99105.05;105286;1268;75465;-74
2022/05/26 00:13:36;;;;;;;30.60;27.00;;;;;;;9.08;100.00;99105.54;105052;1268;69973;-74
2022/05/26 00:16:03;;;;;;;30.50;26.90;;;;;;;9.06;100.00;99105.85;105274;1268;73166;-74
2022/05/26 00:18:29;;;;;;;30.30;27.10;;;;;;;9.03;100.00;99104.06;105208;1268;61303;-74
2022/05/26 00:20:56;;;;;;;30.90;27.60;;;;;;;9.02;100.00;99108.04;105223;1268;61974;-74
2022/05/26 00:23:24;;;;;;;33.90;30.30;;;;;;;8.99;100.00;99104.86;105014;1268;75131;-74
2022/05/26 00:25:50;;;;;;;35.10;29.70;;;;;;;8.97;100.00;99110.66;105252;1268;67679;-74
2022/05/26 00:28:17;;;;;;;33.00;29.30;;;;;;;8.95;100.00;99113.58;105230;1268;61310;-73
2022/05/26 00:30:43;;;;;;;33.60;27.70;;;;;;;8.93;100.00;99111.91;105195;1268;61359;-75
2022/05/26 00:33:10;;;;;;;28.70;25.70;;;;;;;8.90;100.00;99113.00;105235;1268;61199;-75
2022/05/26 00:35:40;;;;;;;28.60;25.40;;;;;;;8.85;100.00;99109.36;105206;1267;61400;-75
2022/05/26 00:38:09;;;;;;;26.10;23.30;;;;;;;8.80;100.00;99110.02;105338;1268;70369;-74
2022/05/26 00:40:37;;;;;;;27.30;23.90;;;;;;;8.75;100.00;99114.57;105256;1268;73011;-74
2022/05/26 00:43:05;;;;;;;29.00;25.90;;;;;;;8.70;100.00;99111.98;104987;1268;61312;-74
2022/05/26 00:45:39;;;;;;;30.50;26.80;;;;;;;8.67;100.00;99115.02;104988;1268;482537;-74
2022/05/26 00:48:10;;;;;;;31.20;27.90;;;;;;;8.63;100.00;99112.21;105226;1268;73416;-73
2022/05/26 00:50:47;;;;;;;32.90;29.40;;;;;;;8.61;100.00;99119.83;105245;1268;70693;-73
2022/05/26 00:53:18;;;;;;;32.00;28.60;;;;;;;8.58;100.00;99122.23;105163;1268;74381;-74
2022/05/26 00:56:22;;;;;;;31.80;28.50;;;;;;;8.56;100.00;99124.67;105092;1267;61471;-75
2022/05/26 00:58:59;;;;;;;36.80;29.30;;;;;;;8.53;100.00;99126.10;105215;1268;61312;-74
2022/05/26 01:01:27;;;;;;;33.50;28.60;;;;;;;8.49;100.00;99127.71;105217;1268;75138;-76
2022/05/26 01:03:58;;;;;;;31.70;28.30;;;;;;;8.48;100.00;99130.99;105291;1268;69409;-75
2022/05/26 01:06:36;;;;;;;30.70;27.40;;;;;;;8.46;100.00;99128.59;105231;1268;73338;-73
2022/05/26 01:09:05;;;;;;;32.90;28.30;;;;;;;8.45;100.00;99124.42;105202;1268;61394;-76
2022/05/26 01:11:38;;;;;;;31.10;27.80;;;;;;;8.45;100.00;99119.84;105095;1268;62179;-74
2022/05/26 01:14:11;;;;;;;33.10;28.30;;;;;;;8.43;100.00;99118.67;105008;1268;74504;-75
2022/05/26 01:16:54;;;;;;;29.90;26.70;;;;;;;8.41;100.00;99119.35;105078;1268;69162;-74
2022/05/26 01:19:40;;;;;;;30.90;27.60;;;;;;;8.37;100.00;99123.96;105195;1268;72792;-75
2022/05/26 01:22:24;;;;;;;27.80;24.80;;;;;;;8.35;100.00;99128.15;105206;1268;61327;-73
2022/05/26 01:24:53;;;;;;;29.20;25.50;;;;;;;8.31;100.00;99132.75;105189;1268;61512;-74
2022/05/26 01:27:37;;;;;;;29.80;26.30;;;;;;;8.29;100.00;99129.86;105225;1268;75325;-74
2022/05/26 01:30:16;;;;;;;28.50;24.40;;;;;;;8.26;100.00;99130.41;105204;1268;69405;-76
2022/05/26 01:32:58;;;;;;;28.60;25.40;;;;;;;8.22;100.00;99132.43;105016;1268;72907;-75
2022/05/26 01:35:38;;;;;;;29.70;26.20;;;;;;;8.18;100.00;99130.12;104949;1268;61344;-75
2022/05/26 01:38:22;;;;;;;30.50;27.00;;;;;;;8.15;100.00;99130.63;105219;1268;61269;-74
2022/05/26 01:41:12;;;;;;;28.40;25.00;;;;;;;8.13;100.00;99128.96;104952;1268;73554;-74
2022/05/26 01:43:56;;;;;;;28.60;24.70;;;;;;;8.11;100.00;99130.66;105255;1268;69471;-73
2022/05/26 01:46:33;;;;;;;25.10;22.30;;;;;;;8.11;100.00;99130.34;105260;1268;73160;-74
2022/05/26 01:49:20;;;;;;;25.90;22.70;;;;;;;8.11;100.00;99129.80;105003;1268;61345;-74
2022/05/26 01:52:02;;;;;;;24.20;21.30;;;;;;;8.13;100.00;99132.00;105215;1268;61121;-75
2022/05/26 01:54:42;;;;;;;26.40;23.30;;;;;;;8.17;100.00;99137.60;105213;1268;75921;-74
2022/05/26 01:57:22;;;;;;;26.20;23.10;;;;;;;8.22;100.00;99138.58;105005;1268;68789;-75
2022/05/26 01:59:52;;;;;;;28.30;23.70;;;;;;;8.28;100.00;99132.42;105237;1268;74502;-75
2022/05/26 02:02:23;;;;;;;29.40;23.60;;;;;;;8.32;100.00;99127.75;105359;1268;61313;-74
2022/05/26 02:04:55;;;;;;;28.00;23.80;;;;;;;8.38;100.00;99125.51;105270;1268;61264;-74
2022/05/26 02:07:37;;;;;;;27.00;23.90;;;;;;;8.44;100.00;99128.02;105199;1268;76211;-75
2022/05/26 02:10:11;;;;;;;26.90;24.00;;;;;;;8.50;100.00;99131.40;105227;1268;69538;-74
2022/05/26 02:12:43;;;;;;;27.90;23.70;;;;;;;8.54;100.00;99130.98;105075;1268;73677;-74
2022/05/26 02:15:21;;;;;;;29.60;23.50;;;;;;;8.62;100.00;99131.27;105265;1268;61400;-75
2022/05/26 02:17:55;;;;;;;29.80;24.80;;;;;;;8.67;100.00;99133.45;105045;1268;62028;-74
2022/05/26 02:20:32;;;;;;;31.10;26.00;;;;;;;8.73;100.00;99128.86;105001;1268;76213;-75
2022/05/26 02:23:06;;;;;;;28.10;25.10;;;;;;;8.78;100.00;99130.69;105208;1268;69453;-76
2022/05/26 02:25:34;;;;;;;27.20;24.20;;;;;;;8.83;100.00;99129.88;105198;1268;73133;-75
2022/05/26 02:28:01;;;;;;;31.00;23.50;;;;;;;8.86;100.00;99126.50;105582;1267;61201;-75
2022/05/26 02:30:34;;;;;;;29.10;24.20;;;;;;;8.89;100.00;99122.24;105243;1268;61202;-74
2022/05/26 02:33:02;;;;;;;26.80;21.80;;;;;;;8.91;100.00;99122.50;105185;1268;75139;-76
2022/05/26 02:35:33;;;;;;;27.90;23.30;;;;;;;8.92;100.00;99122.61;105222;1268;68771;-74
2022/05/26 02:38:13;;;;;;;25.60;21.20;;;;;;;8.92;100.00;99120.13;105283;1268;73160;-75
2022/05/26 02:40:44;;;;;;;25.40;22.50;;;;;;;8.92;100.00;99123.66;105278;1268;61326;-75
2022/05/26 02:43:18;;;;;;;30.10;22.50;;;;;;;8.92;100.00;99120.48;105204;1268;61278;-74
2022/05/26 02:46:15;;;;;;;30.60;22.40;;;;;;;8.91;100.00;99117.20;105207;1268;76510;-75
2022/05/26 02:49:27;;;;;;;23.60;21.20;;;;;;;8.90;100.00;99115.27;105187;1268;68951;-73
2022/05/26 02:52:02;;;;;;;24.80;20.30;;;;;;;8.88;100.00;99119.67;104895;1268;72794;-74
2022/05/26 02:55:12;;;;;;;24.90;22.30;;;;;;;8.86;100.00;99124.19;105192;1268;61386;-74
2022/05/26 02:57:50;;;;;;;22.80;20.40;;;;;;;8.86;100.00;99131.32;105239;1268;61377;-74
2022/05/26 03:00:23;;;;;;;28.90;21.20;;;;;;;8.87;100.00;99131.39;105321;1268;75438;-74
2022/05/26 03:02:55;;;;;;;23.40;21.10;;;;;;;8.89;100.00;99134.66;105036;1268;70796;-75
2022/05/26 03:05:43;;;;;;;25.70;21.80;;;;;;;8.92;100.00;99130.43;105212;1268;74281;-76
2022/05/26 03:08:15;;;;;;;22.80;20.40;;;;;;;8.95;100.00;99133.24;105199;1268;61344;-76
2022/05/26 03:10:48;;;;;;;23.30;19.40;;;;;;;9.00;100.00;99135.61;105242;1268;61291;-75
2022/05/26 03:13:16;;;;;;;23.10;20.50;;;;;;;9.06;100.00;99133.67;105440;1267;75389;-74
2022/05/26 03:15:42;;;;;;;22.70;19.10;;;;;;;9.12;100.00;99131.71;104933;1268;68225;-76
2022/05/26 03:18:09;;;;;;;20.00;17.90;;;;;;;9.20;100.00;99131.81;105223;1268;73156;-75
2022/05/26 03:20:37;;;;;;;21.30;19.10;;;;;;;9.48;100.00;99131.16;105222;1268;61471;-76
2022/05/26 03:23:04;;;;;;;18.90;17.10;;;;;;;10.09;100.00;99127.06;105205;1268;61291;-75
2022/05/26 03:25:31;;;;;;;17.20;15.60;;;;;;;10.98;100.00;99120.62;105201;1268;75066;-74
2022/05/26 03:27:57;;;;;;;16.30;14.70;;;;;;;11.80;100.00;99121.84;105240;1267;61321;-74
2022/05/26 03:30:24;;;;;;;16.50;14.80;;;;;;;12.53;100.00;99121.80;104955;1268;61315;-75
2022/05/26 03:32:50;;;;;;;15.60;13.90;;;;;;;13.13;100.00;99118.29;105218;1268;61305;-75
2022/05/26 03:40:55;;;;;;;17.00;14.60;;;;;;;14.70;100.00;99108.81;105225;1268;69422;-75
2022/05/26 03:43:48;;;;;;;13.40;12.10;;;;;;;15.34;100.00;99115.95;105207;1268;74756;-76
2022/05/26 03:46:15;;;;;;;13.60;11.90;;;;;;;15.84;100.00;99116.91;104779;1276;61304;-75
2022/05/26 03:48:42;;;;;;;13.90;12.50;;;;;;;15.94;100.00;99113.05;104858;1277;61240;-75
2022/05/26 03:51:09;;;;;;;12.90;11.70;;;;;;;16.38;100.00;99108.45;104769;1276;61372;-76
2022/05/26 03:53:36;;;;;;;12.90;11.70;;;;;;;16.86;100.00;99110.90;104771;1277;69483;-76
2022/05/26 03:56:04;;;;;;;13.10;11.70;;;;;;;17.26;100.00;99114.08;104776;1277;73419;-75
2022/05/26 03:58:32;;;;;;;11.90;10.70;;;;;;;17.73;100.00;99112.20;104515;1277;61336;-75
2022/05/26 04:01:06;;;;;;;11.80;10.80;;;;;;;18.17;100.00;99108.39;104872;1277;61462;-76
2022/05/26 04:03:34;;;;;;;11.50;10.50;;;;;;;18.55;100.00;99106.31;104967;1277;74175;-76
2022/05/26 04:06:00;;;;;;;15.30;13.90;;;;;;;18.68;100.00;99111.71;104797;1277;69438;-76
2022/05/26 04:08:27;;;;;;;10.90;10.00;;;;;;;18.93;100.00;99109.94;104798;1277;61357;-76
2022/05/26 04:10:53;;;;;;;10.90;10.00;;;;;;;19.31;100.00;99105.58;104788;1277;61295;-73
2022/05/26 04:13:20;;;;;;;12.00;10.80;;;;;;;19.79;100.00;99106.27;104823;1277;62382;-76
2022/05/26 04:15:47;;;;;;;11.30;10.10;;;;;;;20.07;100.00;99106.98;104796;1277;61289;-74
2022/05/26 04:18:13;;;;;;;10.70;9.70;;;;;;;20.26;100.00;99112.05;104780;1277;61226;-74
2022/05/26 04:20:40;;;;;;;9.60;8.80;;;;;;;20.40;100.00;99112.74;104778;1277;61351;-75
2022/05/26 04:23:07;;;;;;;9.30;8.60;;;;;;;20.63;100.00;99108.84;104871;1268;61406;-75
2022/05/26 04:25:34;;;;;;;9.00;8.10;;;;;;;20.90;100.00;99112.98;105000;1268;61410;-75
2022/05/26 04:28:00;;;;;;;8.10;7.50;;;;;;;21.17;100.00;99116.80;105257;1268;74398;-76
2022/05/26 04:30:27;;;;;;;8.20;7.50;;;;;;;21.31;100.00;99113.06;105205;1267;61266;-74
2022/05/26 04:32:53;;;;;;;8.30;7.60;;;;;;;21.39;100.00;99113.98;105221;1268;61268;-74
2022/05/26 04:35:20;;;;;;;8.00;7.20;;;;;;;21.69;100.00;99113.02;105236;1267;61339;-73
2022/05/26 04:37:47;;;;;;;6.80;6.10;;;;;;;22.05;100.00;99111.34;105205;1268;61176;-73
2022/05/26 04:40:14;;;;;;;6.50;6.00;;;;;;;22.38;100.00;99106.92;105237;1268;75155;-73
2022/05/26 04:42:41;;;;;;;7.10;6.40;;;;;;;22.59;100.00;99107.98;105234;1268;69347;-73
2022/05/26 04:45:10;;;;;;;6.20;5.60;;;;;;;22.80;100.00;99107.37;105232;1268;74239;-74
2022/05/26 04:47:38;;;;;;;7.10;5.50;;;;;;;23.07;100.00;99107.47;104973;1269;61219;-74
2022/05/26 04:50:06;;;;;;;6.10;5.50;;;;;;;23.26;100.00;99104.55;105225;1268;61700;-73
2022/05/26 04:52:33;;;;;;;6.60;5.70;;;;;;;23.46;100.00;99105.74;105298;1268;74261;-74
2022/05/26 04:54:59;;;;;;;6.30;5.70;;;;;;;23.60;100.00;99104.44;104996;1268;69173;-75
2022/05/26 04:57:26;;;;;;;5.90;5.40;;;;;;;23.70;100.00;99100.88;105187;1268;74480;-73
2022/05/26 04:59:54;;;;;;;8.10;5.30;;;;;;;23.81;100.00;99100.36;105208;1268;61413;-73
2022/05/26 05:02:22;;;;;;;6.40;5.40;;;;;;;23.90;100.00;99096.33;105220;1268;62324;-75
2022/05/26 05:04:49;;;;;;;5.40;5.00;;;;;;;23.98;100.00;99099.13;105306;1268;73485;-74
2022/05/26 05:07:17;;;;;;;5.60;4.90;;;;;;;24.11;100.00;99103.99;104931;1268;68917;-73
2022/05/26 05:09:46;;;;;;;5.50;4.90;;;;;;;24.28;100.00;99102.08;105357;1268;73351;-76
2022/05/26 05:12:18;;;;;;;5.40;4.90;;;;;;;24.37;100.00;99104.76;105276;1268;61288;-74
2022/05/26 05:14:48;;;;;;;5.10;4.60;;;;;;;24.35;100.00;99107.92;105239;1267;61284;-73
2022/05/26 05:17:16;;;;;;;5.10;4.70;;;;;;;24.44;100.00;99110.31;105306;1268;76192;-76
2022/05/26 05:19:44;;;;;;;4.30;4.00;;;;;;;24.53;100.00;99115.77;105228;1268;69080;-74
2022/05/26 05:22:39;;;;;;;4.40;3.60;;;;;;;24.46;99.84;99122.40;105203;1268;74414;-75
2022/05/26 05:25:18;;;;;;;3.60;3.40;;;;;;;24.42;99.71;99127.77;105203;1268;62938;-75
2022/05/26 05:27:49;;;;;;;;;;;;;;;24.42;98.79;99125.02;105250;1268;61384;-74
2022/05/26 05:30:21;;;;;;;4.50;3.70;;;;;;;24.32;98.66;99126.43;105214;1268;76363;-75
2022/05/26 05:33:15;;;;;;;4.20;3.80;;;;;;;24.38;98.42;99128.99;105221;1268;69588;-74
2022/05/26 05:35:46;;;;;;;3.20;2.70;;;;;;;24.31;96.96;99130.73;104600;1276;73317;-75
2022/05/26 05:38:15;;;;;;;3.50;3.20;;;;;;;24.22;97.62;99124.49;104587;1276;61617;-76
2022/05/26 05:40:42;;;;;;;5.20;3.70;;;;;;;24.37;98.27;99125.64;104616;1277;61376;-75
2022/05/26 05:43:09;;;;;;;2.70;2.50;;;;;;;24.55;97.53;99123.09;104586;1276;76264;-74
2022/05/26 05:45:38;;;;;;;4.80;2.30;;;;;;;24.54;96.49;99120.17;104578;1276;68176;-75
2022/05/26 05:48:06;;;;;;;2.40;2.20;;;;;;;24.37;95.23;99118.58;104442;1276;73907;-74
2022/05/26 05:50:33;;;;;;;2.30;2.00;;;;;;;24.26;96.08;99121.70;104146;1276;61517;-76
2022/05/26 05:52:59;;;;;;;3.20;2.40;;;;;;;24.25;94.89;99119.71;104599;1276;61975;-77
2022/05/26 05:55:26;;;;;;;2.60;2.00;;;;;;;24.13;95.18;99122.52;104550;1276;76539;-77
2022/05/26 05:57:52;;;;;;;3.70;1.90;;;;;;;24.04;94.47;99120.76;104571;1276;70327;-73
2022/05/26 06:00:19;;;;;;;3.20;2.00;;;;;;;23.91;94.00;99120.75;104528;1276;61645;-75
2022/05/26 06:02:45;;;;;;;2.40;2.00;;;;;;;23.78;93.51;99121.17;104454;1276;61306;-76
2022/05/26 06:05:13;;;;;;;2.30;2.00;;;;;;;23.68;94.23;99122.02;104534;1276;61429;-76
2022/05/26 06:07:40;;;;;;;2.00;1.80;;;;;;;23.67;94.57;99125.90;104560;1276;75134;-76
2022/05/26 06:10:08;;;;;;;2.40;2.00;;;;;;;23.69;94.76;99126.23;104564;1276;69419;-76
2022/05/26 06:12:35;;;;;;;5.70;2.30;;;;;;;23.70;93.73;99123.74;104729;1268;73748;-76
2022/05/26 06:15:04;;;;;;;2.20;2.00;;;;;;;23.60;93.43;99124.44;105205;1268;61312;-76
2022/05/26 06:17:30;;;;;;;1.90;1.80;;;;;;;23.45;93.08;99124.66;105043;1268;61145;-76
2022/05/26 06:19:57;;;;;;;2.30;2.10;;;;;;;23.38;93.47;99124.08;105219;1268;61348;-77
2022/05/26 06:22:24;;;;;;;3.50;2.40;;;;;;;23.44;92.45;99128.13;105212;1268;61335;-76
2022/05/26 06:24:51;;;;;;;2.30;1.90;;;;;;;23.60;92.68;99132.19;105241;1268;72406;-75
2022/05/26 06:30:09;;;;;;;3.00;1.90;;;;;;;23.60;89.82;99135.98;105222;1268;61602;-76
2022/05/26 06:38:20;;;;;;;2.80;2.00;;;;;;;23.51;89.39;99139.35;105193;1268;73200;-75
2022/05/26 06:40:47;;;;;;;2.30;2.00;;;;;;;23.55;89.29;99138.25;105214;1268;61288;-76
2022/05/26 06:43:15;;;;;;;3.10;2.00;;;;;;;23.52;89.04;99133.30;105251;1268;61542;-76
2022/05/26 06:45:44;;;;;;;3.60;2.30;;;;;;;23.52;89.15;99129.88;105361;1268;74689;-75
2022/05/26 06:48:11;;;;;;;2.30;2.10;;;;;;;23.50;89.24;99134.98;105328;1268;70685;-76
2022/05/26 06:50:39;;;;;;;2.40;2.10;;;;;;;23.39;88.71;99136.51;105174;1268;73465;-76
2022/05/26 06:53:06;;;;;;;3.00;2.10;;;;;;;23.34;89.75;99139.98;105262;1268;61295;-75
2022/05/26 06:55:33;;;;;;;2.50;1.70;;;;;;;23.42;89.98;99135.73;105265;1268;61118;-76
2022/05/26 06:57:59;;;;;;;4.30;2.20;;;;;;;23.41;88.68;99137.16;105216;1268;74353;-75
2022/05/26 07:00:26;;;;;;;2.20;1.80;;;;;;;23.36;88.58;99141.92;105260;1268;61364;-75
2022/05/26 07:02:53;;;;;;;3.30;1.90;;;;;;;23.27;88.08;99139.59;104982;1268;61295;-75
2022/05/26 07:05:20;;;;;;;1.60;1.50;;;;;;;23.28;88.60;99147.03;105194;1268;61295;-76
2022/05/26 07:07:46;;;;;;;2.90;2.10;;;;;;;23.21;87.21;99145.30;105232;1268;61154;-77
2022/05/26 07:10:13;;;;;;;2.00;1.90;;;;;;;23.11;88.05;99143.06;104977;1268;61232;-75
2022/05/26 07:12:40;;;;;;;2.40;1.90;;;;;;;23.22;88.89;99144.68;105246;1268;69693;-77
2022/05/26 07:15:08;;;;;;;3.90;2.00;;;;;;;23.35;88.12;99144.21;105228;1268;73217;-77
2022/05/26 07:17:36;;;;;;;2.30;2.10;;;;;;;23.37;87.22;99143.39;105311;1268;61339;-78
2022/05/26 07:20:04;;;;;;;2.90;2.40;;;;;;;23.38;86.06;99147.29;105345;1268;61682;-75
2022/05/26 07:22:31;;;;;;;2.80;1.90;;;;;;;23.05;85.88;99148.87;104961;1274;74949;-76
2022/05/26 07:24:58;;;;;;;3.90;2.10;;;;;;;22.80;86.82;99148.30;105224;1268;69578;-77
2022/05/26 07:27:24;;;;;;;4.00;2.20;;;;;;;22.68;87.87;99151.41;105200;1268;73340;-79
2022/05/26 07:29:52;;;;;;;2.70;2.20;;;;;;;22.63;89.07;99150.61;105240;1268;61256;-77
2022/05/26 07:32:18;;;;;;;3.70;2.30;;;;;;;22.66;89.09;99145.91;105278;1268;61270;-76
2022/05/26 07:34:45;;;;;;;3.20;2.60;;;;;;;22.57;87.20;99146.94;105086;1269;61304;-74
2022/05/26 07:42:42;;;;;;;2.70;2.50;;;;;;;22.39;87.67;99150.56;105262;1268;61275;-75
2022/05/26 07:45:09;;;;;;;2.80;2.60;;;;;;;22.82;87.89;99146.94;105268;1268;62003;-77
2022/05/26 07:47:37;;;;;;;4.80;2.20;;;;;;;23.10;86.65;99153.49;105207;1271;75201;-76
2022/05/26 07:50:07;;;;;;;2.00;1.80;;;;;;;23.22;86.59;99156.48;105353;1268;69826;-75
2022/05/26 07:52:33;;;;;;;3.80;2.30;;;;;;;23.38;86.43;99156.20;105262;1268;73755;-76
2022/05/26 07:55:00;;;;;;;2.40;2.20;;;;;;;23.63;86.63;99160.37;105069;1268;61476;-76
2022/05/26 07:57:28;;;;;;;3.40;2.40;;;;;;;23.90;85.96;99157.64;105247;1271;61322;-75
2022/05/26 07:59:57;;;;;;;4.80;2.90;;;;;;;24.00;85.93;99159.73;105253;1268;76400;-76
2022/05/26 08:02:24;;;;;;;4.10;2.70;;;;;;;23.92;83.03;99160.91;105304;1268;69378;-76
2022/05/26 08:04:51;;;;;;;3.50;2.30;;;;;;;23.83;83.54;99157.14;105232;1268;73786;-76
2022/05/26 08:07:17;;;;;;;3.90;2.40;;;;;;;23.74;83.27;99154.88;105215;1270;61376;-76
2022/05/26 08:09:44;;;;;;;3.70;2.40;;;;;;;23.58;83.59;99154.34;105286;1268;62297;-76
2022/05/26 08:12:13;;;;;;;2.70;2.40;;;;;;;23.37;84.32;99155.59;105249;1268;75490;-76
2022/05/26 08:14:42;;;;;;;3.70;2.30;;;;;;;23.21;84.49;99154.58;105349;1268;70182;-77
2022/05/26 08:17:11;;;;;;;3.50;2.10;;;;;;;23.10;84.62;99155.95;105268;1268;73203;-77
2022/05/26 08:19:39;;;;;;;3.10;1.90;;;;;;;22.92;83.95;99147.12;105278;1268;61292;-77
2022/05/26 08:22:06;;;;;;;7.50;2.00;;;;;;;22.78;84.79;99157.20;105016;1268;61343;-76
2022/05/26 08:24:33;;;;;;;3.40;1.60;;;;;;;22.84;85.68;99155.27;105268;1268;75579;-76
2022/05/26 08:26:59;;;;;;;4.30;2.10;;;;;;;22.94;85.59;99154.45;105424;1268;69204;-76
2022/05/26 08:29:26;;;;;;;2.50;2.30;;;;;;;22.97;85.38;99155.17;105220;1269;61344;-76
2022/05/26 08:31:53;;;;;;;8.00;3.00;;;;;;;23.00;84.69;99156.98;105089;1271;61346;-77
2022/05/26 08:34:20;;;;;;;3.70;2.00;;;;;;;22.93;84.47;99157.64;105225;1268;61296;-77
2022/05/26 08:36:47;;;;;;;3.20;2.30;;;;;;;22.86;84.37;99161.48;105046;1268;75405;-77
2022/05/26 08:39:15;;;;;;;2.00;1.80;;;;;;;22.77;83.97;99164.30;105284;1268;67742;-76
2022/05/26 08:41:46;;;;;;;3.00;2.30;;;;;;;22.72;84.11;99162.98;105304;1268;71398;-76
2022/05/26 08:44:25;;;;;;;3.20;2.30;;;;;;;22.83;84.47;99163.36;105079;1268;61601;-77
2022/05/26 08:47:01;;;;;;;3.20;2.10;;;;;;;22.96;83.23;99164.31;105221;1268;61739;-77
2022/05/26 08:49:38;;;;;;;3.60;2.10;;;;;;;22.98;82.15;99160.89;105013;1269;75336;-76
2022/05/26 08:52:10;;;;;;;3.40;2.70;;;;;;;23.25;83.20;99164.33;105306;1268;69304;-75
2022/05/26 08:54:39;;;;;;;3.40;2.40;;;;;;;23.52;81.33;99158.54;105256;1268;73943;-76
2022/05/26 08:57:11;;;;;;;2.60;2.20;;;;;;;23.67;80.43;99158.77;105266;1268;61333;-76
2022/05/26 08:59:44;;;;;;;3.00;2.10;;;;;;;23.61;76.28;99159.33;105392;1268;61276;-76
2022/05/26 09:02:16;;;;;;;3.70;2.20;;;;;;;23.54;75.26;99160.32;105319;1268;75314;-77
2022/05/26 09:04:44;;;;;;;3.50;2.50;;;;;;;23.54;75.01;99158.90;105295;1268;69328;-76
2022/05/26 09:12:59;;;;;;;3.50;2.40;;;;;;;23.82;69.89;99153.55;105234;1271;61268;-78
2022/05/26 09:15:27;;;;;;;2.30;2.00;;;;;;;23.84;68.02;99147.83;105305;1268;75409;-75
2022/05/26 09:17:55;;;;;;;1.40;1.30;;;;;;;23.78;66.09;99146.99;105268;1268;70373;-76
2022/05/26 09:20:38;;;;;;;2.70;1.40;;;;;;;23.52;58.55;99149.13;105251;1268;72987;-77
2022/05/26 09:23:14;;;;;;;2.80;1.20;;;;;;;23.15;54.15;99149.45;105256;1268;61298;-76
2022/05/26 09:25:51;;;;;;;2.00;1.10;;;;;;;22.85;52.38;99152.41;105259;1268;61984;-76
2022/05/26 09:28:49;;;;;;;2.30;1.10;;;;;;;22.70;51.95;99158.27;105320;1268;75311;-77
2022/05/26 09:31:28;;;;;;;2.70;1.60;;;;;;;22.75;53.50;99153.89;105277;1268;68609;-77
2022/05/26 09:34:01;;;;;;;4.40;1.60;;;;;;;23.10;54.06;99147.30;105260;1268;74308;-76
2022/05/26 09:36:31;;;;;;;1.90;1.70;;;;;;;23.36;53.38;99148.42;105225;1268;61146;-77
2022/05/26 09:38:58;;;;;;;2.60;1.60;;;;;;;23.42;52.64;99150.67;105274;1268;61243;-78
2022/05/26 09:41:25;;;;;;;1.80;1.60;;;;;;;23.32;51.51;99150.77;105293;1268;75326;-76
2022/05/26 09:43:55;;;;;;;3.40;1.60;;;;;;;23.24;51.68;99153.80;105245;1268;69970;-77
2022/05/26 09:46:26;;;;;;;1.40;1.30;;;;;;;23.29;51.64;99149.05;105316;1268;72288;-76
2022/05/26 09:49:00;;;;;;;4.80;1.20;;;;;;;23.26;51.47;99148.03;105331;1268;61386;-77
2022/05/26 09:51:39;;;;;;;2.90;1.20;;;;;;;23.43;51.31;99141.85;105227;1268;61291;-76
2022/05/26 09:54:27;;;;;;;2.80;1.60;;;;;;;23.55;49.66;99139.35;105016;1268;75900;-76
2022/05/26 09:56:54;;;;;;;5.10;1.50;;;;;;;23.61;50.23;99137.28;105290;1268;69194;-77
2022/05/26 09:59:34;;;;;;;4.10;1.70;;;;;;;23.71;49.67;99134.19;105239;1271;61288;-76
2022/05/26 10:02:06;;;;;;;;;;;;;;;23.82;49.99;99131.08;105251;1268;61364;-76
2022/05/26 10:05:07;;;;;;;3.60;1.70;;;;;;;23.85;50.25;99132.17;105273;1268;62726;-77
2022/05/26 10:07:43;;;;;;;2.60;1.10;;;;;;;23.83;48.96;99135.88;105242;1268;74094;-77
2022/05/26 10:10:24;;;;;;;4.70;1.20;;;;;;;23.88;49.32;99136.80;105228;1268;69800;-76
2022/05/26 10:13:31;;;;;;;4.20;1.00;;;;;;;24.34;47.94;99137.79;105281;1268;73741;-77
2022/05/26 10:16:20;;;;;;;1.30;1.00;;;;;;;24.61;45.14;99136.77;105258;1268;61326;-76
2022/05/26 10:18:49;;;;;;;3.20;1.40;;;;;;;24.71;44.89;99141.82;105257;1268;61371;-75
2022/05/26 10:21:39;;;;;;;8.70;1.80;;;;;;;24.91;45.78;99143.71;105243;1268;76295;-76
2022/05/26 10:24:27;;;;;;;4.90;1.80;;;;;;;25.22;45.83;99134.80;105265;1268;69249;-76
2022/05/26 10:27:15;;;;;;;4.80;1.50;;;;;;;25.40;45.31;99138.16;105269;1268;72588;-76
2022/05/26 10:29:47;;;;;;;3.70;1.30;;;;;;;25.44;45.09;99143.30;105249;1268;61628;-77
2022/05/26 10:32:32;;;;;;;3.70;1.50;;;;;;;25.48;44.72;99145.83;105268;1266;61295;-75
2022/05/26 10:35:11;;;;;;;2.10;1.20;;;;;;;25.32;44.31;99140.63;105262;1268;75949;-76
2022/05/26 10:37:51;;;;;;;4.30;1.30;;;;;;;25.27;44.52;99143.77;105266;1268;67304;-76
2022/05/26 10:40:30;;;;;;;1.80;1.00;;;;;;;25.06;44.21;99143.30;105229;1268;73185;-76
2022/05/26 10:43:21;;;;;;;3.10;1.50;;;;;;;24.79;45.07;99142.13;105007;1269;61371;-77
2022/05/26 10:45:51;;;;;;;2.60;1.40;;;;;;;24.55;44.81;99140.86;105258;1268;62038;-76
2022/05/26 10:48:39;;;;;;;4.40;1.50;;;;;;;24.36;44.23;99140.08;105232;1268;75777;-76
2022/05/26 10:51:16;;;;;;;6.60;1.40;;;;;;;24.13;44.33;99145.84;105250;1268;68988;-77
2022/05/26 10:53:46;;;;;;;4.30;1.00;;;;;;;23.84;44.37;99154.39;105248;1268;73045;-78
2022/05/26 10:56:21;;;;;;;2.80;1.10;;;;;;;23.59;44.19;99154.27;105243;1268;61360;-75
2022/05/26 10:59:08;;;;;;;3.70;1.70;;;;;;;23.42;44.60;99150.98;105302;1268;61281;-76
2022/05/26 11:01:42;;;;;;;3.20;1.30;;;;;;;23.41;44.61;99149.44;105295;1268;74463;-77
2022/05/26 11:04:40;;;;;;;3.40;1.30;;;;;;;23.45;44.58;99149.55;105950;1268;67397;-83
2022/05/26 11:07:16;;;;;;;2.10;1.30;;;;;;;23.46;44.31;99154.51;104765;1279;71291;-80
2022/05/26 11:09:47;;;;;;;1.70;1.20;;;;;;;23.45;44.40;99157.00;104846;1277;61237;-82
2022/05/26 11:12:28;;;;;;;2.00;1.10;;;;;;;23.53;44.28;99154.98;105221;1277;61359;-81
2022/05/26 11:17:56;;;;;;;2.50;1.10;;;;;;;23.51;44.94;99144.16;105088;1277;70494;-76
2022/05/26 11:20:53;;;;;;;3.10;1.20;;;;;;;23.27;44.85;99145.13;104872;1277;73874;-76
2022/05/26 11:23:25;;;;;;;2.10;1.10;;;;;;;22.96;45.25;99143.91;104039;1284;61433;-77
2022/05/26 11:26:06;;;;;;;2.20;1.00;;;;;;;22.90;46.01;99142.04;104603;1284;61553;-81
2022/05/26 11:28:47;;;;;;;1.60;0.80;;;;;;;23.33;46.55;99140.27;104516;1284;75177;-78
2022/05/26 11:37:27;;;;;;;3.50;1.00;;;;;;;23.85;45.01;99137.23;103989;1284;61621;-70
2022/05/26 11:40:00;;;;;;;1.60;1.00;;;;;;;24.32;45.38;99128.73;103967;1284;61411;-71
2022/05/26 11:42:38;;;;;;;2.30;1.30;;;;;;;24.51;44.21;99130.16;103985;1284;75264;-71
2022/05/26 11:45:08;;;;;;;4.10;1.10;;;;;;;24.53;44.02;99127.55;104609;1277;70046;-70
2022/05/26 11:47:52;;;;;;;1.40;1.00;;;;;;;24.39;43.32;99126.68;104808;1277;73240;-71
2022/05/26 11:50:21;;;;;;;5.10;1.70;;;;;;;24.37;42.16;99120.96;104722;1277;61270;-70
2022/05/26 11:52:53;;;;;;;3.10;0.80;;;;;;;24.29;39.41;99127.86;104790;1277;61351;-70
2022/05/26 11:55:45;;;;;;;4.30;0.90;;;;;;;24.21;39.73;99125.05;104816;1277;76431;-70
2022/05/26 11:58:31;;;;;;;3.10;0.80;;;;;;;24.01;39.29;99124.64;105023;1277;67361;-70
2022/05/26 12:01:23;;;;;;;2.30;0.80;;;;;;;23.82;40.57;99131.08;105069;1271;72446;-69
2022/05/26 12:03:53;;;;;;;3.40;1.00;;;;;;;23.75;40.67;99125.05;105153;1271;61297;-70
2022/05/26 12:06:41;;;;;;;4.20;0.90;;;;;;;23.80;41.11;99130.34;105199;1271;61334;-70
2022/05/26 12:09:27;;;;;;;5.40;1.00;;;;;;;23.76;39.85;99118.04;105212;1271;74085;-70
2022/05/26 12:12:18;;;;;;;2.50;0.90;;;;;;;23.85;39.71;99119.20;105213;1271;69747;-69
2022/05/26 12:14:47;;;;;;;6.20;0.80;;;;;;;24.02;40.70;99110.83;105257;1271;73969;-70
2022/05/26 12:17:42;;;;;;;2.60;0.70;;;;;;;24.13;41.01;99119.32;105202;1271;61300;-71
2022/05/26 12:20:11;;;;;;;4.30;0.70;;;;;;;24.04;40.57;99117.86;105188;1271;61578;-72